createdAt,value
2018-03-22T00:03:00.000Z,99589
2018-03-22T00:08:00.000Z,99584
2018-03-22T00:13:00.000Z,99570
2018-03-22T00:18:00.000Z,99570
2018-03-22T00:23:00.000Z,99571
2018-03-22T00:28:00.000Z,99564
2018-03-22T00:33:00.000Z,99554
2018-03-22T00:38:00.000Z,99560
2018-03-22T00:43:00.000Z,99562
2018-03-22T00:48:00.000Z,99555
2018-03-22T00:53:00.000Z,99550
2018-03-22T00:58:00.000Z,99550
2018-03-22T01:03:00.000Z,99556
2018-03-22T01:08:00.000Z,99543
2018-03-22T01:13:00.000Z,99547
2018-03-22T01:18:00.000Z,99532
2018-03-22T01:23:00.000Z,99540
2018-03-22T01:28:00.000Z,99524
2018-03-22T01:33:00.000Z,99530
2018-03-22T01:38:00.000Z,99527
2018-03-22T01:43:00.000Z,99520
2018-03-22T01:48:00.000Z,99514
2018-03-22T01:53:00.000Z,99507
2018-03-22T01:58:00.000Z,99508
2018-03-22T02:03:00.000Z,99492
2018-03-22T02:08:00.000Z,99489
2018-03-22T02:13:00.000Z,99491
2018-03-22T02:18:00.000Z,99482
2018-03-22T02:23:00.000Z,99487
2018-03-22T02:28:00.000Z,99479
2018-03-22T02:33:00.000Z,99470
2018-03-22T02:38:00.000Z,99461
2018-03-22T02:43:00.000Z,99466
2018-03-22T02:48:00.000Z,99466
2018-03-22T02:54:00.000Z,99457
2018-03-22T02:59:00.000Z,99444
2018-03-22T03:04:00.000Z,99446
2018-03-22T03:09:00.000Z,99443
2018-03-22T03:14:00.000Z,99440
2018-03-22T03:19:00.000Z,99430
2018-03-22T03:24:00.000Z,99416
2018-03-22T03:29:00.000Z,99416
2018-03-22T03:34:00.000Z,99407
2018-03-22T03:39:00.000Z,99397
2018-03-22T03:44:00.000Z,99401
2018-03-22T03:49:00.000Z,99395
2018-03-22T03:54:00.000Z,99389
2018-03-22T03:59:00.000Z,99378
2018-03-22T04:04:00.000Z,99383
2018-03-22T04:09:00.000Z,99367
2018-03-22T04:14:00.000Z,99366
2018-03-22T04:19:00.000Z,99370
2018-03-22T04:24:00.000Z,99359
2018-03-22T04:29:00.000Z,99349
2018-03-22T04:34:00.000Z,99339
2018-03-22T04:39:00.000Z,99349
2018-03-22T04:44:00.000Z,99344
2018-03-22T04:49:00.000Z,99346
2018-03-22T04:54:00.000Z,99326
2018-03-22T04:59:00.000Z,99334
2018-03-22T05:04:00.000Z,99337
2018-03-22T05:09:00.000Z,99336
2018-03-22T05:14:00.000Z,99330
2018-03-22T05:19:00.000Z,99342
2018-03-22T05:24:00.000Z,99349
2018-03-22T05:29:00.000Z,99331
2018-03-22T05:34:00.000Z,99333
2018-03-22T05:39:00.000Z,99316
2018-03-22T05:44:00.000Z,99315
2018-03-22T05:49:00.000Z,99315
2018-03-22T05:54:00.000Z,99308
2018-03-22T05:59:00.000Z,99295
2018-03-22T06:04:00.000Z,99294
2018-03-22T06:09:00.000Z,99289
2018-03-22T06:14:00.000Z,99290
2018-03-22T06:19:00.000Z,99281
2018-03-22T06:24:00.000Z,99287
2018-03-22T06:29:00.000Z,99267
2018-03-22T06:34:00.000Z,99272
2018-03-22T06:39:00.000Z,99269
2018-03-22T06:44:00.000Z,99265
2018-03-22T06:49:00.000Z,99272
2018-03-22T06:54:00.000Z,99249
2018-03-22T06:59:00.000Z,99250
2018-03-22T07:04:00.000Z,99249
2018-03-22T07:09:00.000Z,99243
2018-03-22T07:14:00.000Z,99241
2018-03-22T07:19:00.000Z,99235
2018-03-22T07:24:00.000Z,99237
2018-03-22T07:29:00.000Z,99216
2018-03-22T07:34:00.000Z,99222
2018-03-22T07:39:00.000Z,99217
2018-03-22T07:44:00.000Z,99208
2018-03-22T07:49:00.000Z,99210
2018-03-22T07:54:00.000Z,99212
2018-03-22T07:59:00.000Z,99200
2018-03-22T08:04:00.000Z,99189
2018-03-22T08:09:00.000Z,99188
2018-03-22T08:14:00.000Z,99175
2018-03-22T08:20:00.000Z,99161
2018-03-22T08:25:00.000Z,99165
2018-03-22T08:30:00.000Z,99156
2018-03-22T08:35:00.000Z,99152
2018-03-22T08:40:00.000Z,99142
2018-03-22T08:45:00.000Z,99147
2018-03-22T08:50:00.000Z,99137
2018-03-22T08:55:00.000Z,99141
2018-03-22T09:00:00.000Z,99141
2018-03-22T09:05:00.000Z,99137
2018-03-22T09:10:00.000Z,99125
2018-03-22T09:15:00.000Z,99113
2018-03-22T09:20:00.000Z,99113
2018-03-22T09:25:00.000Z,99109
2018-03-22T09:30:00.000Z,99106
2018-03-22T09:35:00.000Z,99089
2018-03-22T09:40:00.000Z,99078
2018-03-22T09:45:00.000Z,99061
2018-03-22T09:50:00.000Z,99052
2018-03-22T09:55:00.000Z,99048
2018-03-22T10:00:00.000Z,99037
2018-03-22T10:05:00.000Z,99037
2018-03-22T10:10:00.000Z,99023
2018-03-22T10:15:00.000Z,99012
2018-03-22T10:20:00.000Z,99000
2018-03-22T10:25:00.000Z,98993
2018-03-22T10:30:00.000Z,98980
2018-03-22T10:35:00.000Z,98981
2018-03-22T10:40:00.000Z,98961
2018-03-22T10:45:00.000Z,98958
2018-03-22T10:50:00.000Z,98949
2018-03-22T10:55:00.000Z,98946
2018-03-22T11:00:00.000Z,98934
2018-03-22T11:05:00.000Z,98916
2018-03-22T11:10:00.000Z,98900
2018-03-22T11:15:00.000Z,98894
2018-03-22T11:20:00.000Z,98881
2018-03-22T11:25:00.000Z,98881
2018-03-22T11:30:00.000Z,98868
2018-03-22T11:35:00.000Z,98858
2018-03-22T11:40:00.000Z,98842
2018-03-22T11:45:00.000Z,98842
2018-03-22T11:50:00.000Z,98820
2018-03-22T11:55:00.000Z,98819
2018-03-22T12:00:00.000Z,98802
2018-03-22T12:05:00.000Z,98796
2018-03-22T12:10:00.000Z,98777
2018-03-22T12:15:00.000Z,98769
2018-03-22T12:20:00.000Z,98763
2018-03-22T12:25:00.000Z,98762
2018-03-22T12:30:00.000Z,98742
2018-03-22T12:35:00.000Z,98728
2018-03-22T12:40:00.000Z,98730
2018-03-22T12:45:00.000Z,98707
2018-03-22T12:50:00.000Z,98710
2018-03-22T12:55:00.000Z,98699
2018-03-22T13:00:00.000Z,98689
2018-03-22T13:05:00.000Z,98694
2018-03-22T13:10:00.000Z,98683
2018-03-22T13:15:00.000Z,98682
2018-03-22T13:20:00.000Z,98676
2018-03-22T13:25:00.000Z,98666
2018-03-22T13:30:00.000Z,98655
2018-03-22T13:35:00.000Z,98651
2018-03-22T13:40:00.000Z,98646
2018-03-22T13:45:00.000Z,98617
2018-03-22T13:50:00.000Z,98615
2018-03-22T13:55:00.000Z,98606
2018-03-22T14:01:00.000Z,98595
2018-03-22T14:06:00.000Z,98581
2018-03-22T14:11:00.000Z,98584
2018-03-22T14:16:00.000Z,98574
2018-03-22T14:21:00.000Z,98555
2018-03-22T14:26:00.000Z,98547
2018-03-22T14:31:00.000Z,98543
2018-03-22T14:36:00.000Z,98533
2018-03-22T14:41:00.000Z,98521
2018-03-22T14:46:00.000Z,98518
2018-03-22T14:51:00.000Z,98491
2018-03-22T14:56:00.000Z,98490
2018-03-22T15:01:00.000Z,98488
2018-03-22T15:06:00.000Z,98483
2018-03-22T15:11:00.000Z,98468
2018-03-22T15:16:00.000Z,98465
2018-03-22T15:21:00.000Z,98458
2018-03-22T15:26:00.000Z,98444
2018-03-22T15:31:00.000Z,98451
2018-03-22T15:36:00.000Z,98449
2018-03-22T15:41:00.000Z,98442
2018-03-22T15:46:00.000Z,98423
2018-03-22T15:51:00.000Z,98432
2018-03-22T15:56:00.000Z,98437
2018-03-22T16:01:00.000Z,98432
2018-03-22T16:06:00.000Z,98426
2018-03-22T16:11:00.000Z,98409
2018-03-22T16:16:00.000Z,98415
2018-03-22T16:21:00.000Z,98422
2018-03-22T16:26:00.000Z,98415
2018-03-22T16:31:00.000Z,98415
2018-03-22T16:36:00.000Z,98417
2018-03-22T16:41:00.000Z,98414
2018-03-22T16:46:00.000Z,98413
2018-03-22T16:51:00.000Z,98417
2018-03-22T16:56:00.000Z,98414
2018-03-22T17:01:00.000Z,98421
2018-03-22T17:06:00.000Z,98413
2018-03-22T17:11:00.000Z,98414
2018-03-22T17:16:00.000Z,98425
2018-03-22T17:21:00.000Z,98418
2018-03-22T17:26:00.000Z,98418
2018-03-22T17:31:00.000Z,98402
2018-03-22T17:36:00.000Z,98394
2018-03-22T17:41:00.000Z,98416
2018-03-22T17:46:00.000Z,98412
2018-03-22T17:51:00.000Z,98404
2018-03-22T17:56:00.000Z,98405
2018-03-22T18:01:00.000Z,98393
2018-03-22T18:06:00.000Z,98397
2018-03-22T18:11:00.000Z,98397
2018-03-22T18:16:00.000Z,98398
2018-03-22T18:21:00.000Z,98393
2018-03-22T18:26:00.000Z,98399
2018-03-22T18:31:00.000Z,98398
2018-03-22T18:36:00.000Z,98390
2018-03-22T18:41:00.000Z,98393
2018-03-22T18:46:00.000Z,98390
2018-03-22T18:51:00.000Z,98392
2018-03-22T18:56:00.000Z,98399
2018-03-22T19:01:00.000Z,98391
2018-03-22T19:06:00.000Z,98383
2018-03-22T19:11:00.000Z,98381
2018-03-22T19:16:00.000Z,98378
2018-03-22T19:21:00.000Z,98370
2018-03-22T19:26:00.000Z,98373
2018-03-22T19:31:00.000Z,98367
2018-03-22T19:36:00.000Z,98367
2018-03-22T19:41:00.000Z,98353
2018-03-22T19:46:00.000Z,98358
2018-03-22T19:51:00.000Z,98356
2018-03-22T19:56:00.000Z,98366
2018-03-22T20:01:00.000Z,98346
2018-03-22T20:06:00.000Z,98349
2018-03-22T20:12:00.000Z,98349
2018-03-22T20:17:00.000Z,98347
2018-03-22T20:22:00.000Z,98354
2018-03-22T20:27:00.000Z,98354
2018-03-22T20:32:00.000Z,98348
2018-03-22T20:37:00.000Z,98346
2018-03-22T20:42:00.000Z,98343
2018-03-22T20:47:00.000Z,98344
2018-03-22T20:52:00.000Z,98343
2018-03-22T20:57:00.000Z,98330
2018-03-22T21:02:00.000Z,98325
2018-03-22T21:07:00.000Z,98328
2018-03-22T21:12:00.000Z,98317
2018-03-22T21:17:00.000Z,98316
2018-03-22T21:22:00.000Z,98313
2018-03-22T21:27:00.000Z,98305
2018-03-22T21:32:00.000Z,98293
2018-03-22T21:37:00.000Z,98294
2018-03-22T21:42:00.000Z,98301
2018-03-22T21:47:00.000Z,98290
2018-03-22T21:52:00.000Z,98286
2018-03-22T21:57:00.000Z,98294
2018-03-22T22:02:00.000Z,98282
2018-03-22T22:07:00.000Z,98273
2018-03-22T22:12:00.000Z,98270
2018-03-22T22:17:00.000Z,98268
2018-03-22T22:22:00.000Z,98257
2018-03-22T22:27:00.000Z,98260
2018-03-22T22:32:00.000Z,98259
2018-03-22T22:37:00.000Z,98240
2018-03-22T22:42:00.000Z,98240
2018-03-22T22:47:00.000Z,98237
2018-03-22T22:52:00.000Z,98229
2018-03-22T22:57:00.000Z,98223
2018-03-22T23:02:00.000Z,98218
2018-03-22T23:07:00.000Z,98215
2018-03-22T23:12:00.000Z,98205
2018-03-22T23:17:00.000Z,98195
2018-03-22T23:22:00.000Z,98193
2018-03-22T23:27:00.000Z,98197
2018-03-22T23:32:00.000Z,98186
2018-03-22T23:37:00.000Z,98185
2018-03-22T23:42:00.000Z,98178
2018-03-22T23:47:00.000Z,98178
2018-03-22T23:52:00.000Z,98176
2018-03-22T23:57:00.000Z,98171
